sensor_id;sensor_type;location;lat;lon;timestamp;pressure;altitude;pressure_sealevel;temperature;humidity
73429;BME280;61643;49.564;17.412;2022-12-18T00:01:35;99677.94;;;-3.80;91.16
73429;BME280;61643;49.564;17.412;2022-12-18T00:04:03;99675.69;;;-3.85;89.79
73429;BME280;61643;49.564;17.412;2022-12-18T00:06:29;99675.38;;;-3.91;90.44
73429;BME280;61643;49.564;17.412;2022-12-18T00:08:57;99668.84;;;-3.97;89.46
73429;BME280;61643;49.564;17.412;2022-12-18T00:11:25;99671.03;;;-4.02;88.92
73429;BME280;61643;49.564;17.412;2022-12-18T00:13:53;99679.81;;;-3.92;89.46
73429;BME280;61643;49.564;17.412;2022-12-18T00:16:21;99683.13;;;-3.90;89.08
73429;BME280;61643;49.564;17.412;2022-12-18T00:18:47;99682.97;;;-3.98;89.27
73429;BME280;61643;49.564;17.412;2022-12-18T00:21:13;99683.66;;;-3.96;89.44
73429;BME280;61643;49.564;17.412;2022-12-18T00:23:39;99694.19;;;-3.96;88.64
73429;BME280;61643;49.564;17.412;2022-12-18T00:26:09;99684.88;;;-4.00;89.13
73429;BME280;61643;49.564;17.412;2022-12-18T00:28:35;99691.66;;;-3.98;88.71
73429;BME280;61643;49.564;17.412;2022-12-18T00:31:06;99695.53;;;-4.02;89.07
73429;BME280;61643;49.564;17.412;2022-12-18T00:33:33;99694.69;;;-4.02;89.11
73429;BME280;61643;49.564;17.412;2022-12-18T00:38:28;99696.91;;;-3.98;88.43
73429;BME280;61643;49.564;17.412;2022-12-18T00:40:53;99697.06;;;-3.99;88.54
73429;BME280;61643;49.564;17.412;2022-12-18T00:43:19;99704.75;;;-4.07;88.47
73429;BME280;61643;49.564;17.412;2022-12-18T00:45:45;99696.13;;;-3.98;88.20
73429;BME280;61643;49.564;17.412;2022-12-18T00:48:10;99696.91;;;-3.98;88.20
73429;BME280;61643;49.564;17.412;2022-12-18T00:50:35;99694.69;;;-4.02;87.92
73429;BME280;61643;49.564;17.412;2022-12-18T00:53:01;99704.38;;;-4.03;87.82
73429;BME280;61643;49.564;17.412;2022-12-18T00:55:26;99708.81;;;-4.03;88.04
73429;BME280;61643;49.564;17.412;2022-12-18T00:57:52;99707.06;;;-4.14;88.12
73429;BME280;61643;49.564;17.412;2022-12-18T01:00:17;99711.94;;;-4.09;88.76
73429;BME280;61643;49.564;17.412;2022-12-18T01:02:43;99714.31;;;-4.06;88.12
73429;BME280;61643;49.564;17.412;2022-12-18T01:05:10;99718.78;;;-3.97;88.10
73429;BME280;61643;49.564;17.412;2022-12-18T01:07:36;99718.16;;;-3.89;87.59
73429;BME280;61643;49.564;17.412;2022-12-18T01:10:01;99720.53;;;-3.86;87.60
73429;BME280;61643;49.564;17.412;2022-12-18T01:12:27;99731.69;;;-3.94;88.11
73429;BME280;61643;49.564;17.412;2022-12-18T01:14:52;99720.59;;;-3.98;88.59
73429;BME280;61643;49.564;17.412;2022-12-18T01:17:17;99737.63;;;-4.02;87.48
73429;BME280;61643;49.564;17.412;2022-12-18T01:19:43;99731.81;;;-4.16;88.96
73429;BME280;61643;49.564;17.412;2022-12-18T01:22:08;99736.63;;;-4.21;88.70
73429;BME280;61643;49.564;17.412;2022-12-18T01:24:33;99744.63;;;-4.23;89.34
73429;BME280;61643;49.564;17.412;2022-12-18T01:26:59;99740.72;;;-4.28;89.10
73429;BME280;61643;49.564;17.412;2022-12-18T01:29:24;99727.78;;;-4.20;89.09
73429;BME280;61643;49.564;17.412;2022-12-18T01:31:49;99747.19;;;-4.12;89.53
73429;BME280;61643;49.564;17.412;2022-12-18T01:34:15;99752.19;;;-4.09;90.11
73429;BME280;61643;49.564;17.412;2022-12-18T01:36:40;99745.88;;;-4.06;90.15
73429;BME280;61643;49.564;17.412;2022-12-18T01:39:10;99753.56;;;-4.14;90.53
73429;BME280;61643;49.564;17.412;2022-12-18T01:41:35;99748.47;;;-4.27;91.20
73429;BME280;61643;49.564;17.412;2022-12-18T01:47:27;99756.81;;;-4.22;92.49
73429;BME280;61643;49.564;17.412;2022-12-18T01:49:54;99760.75;;;-4.16;91.61
73429;BME280;61643;49.564;17.412;2022-12-18T01:52:21;99755.00;;;-4.21;92.20
73429;BME280;61643;49.564;17.412;2022-12-18T01:54:48;99753.56;;;-4.14;91.48
73429;BME280;61643;49.564;17.412;2022-12-18T01:57:14;99760.53;;;-4.24;92.09
73429;BME280;61643;49.564;17.412;2022-12-18T01:59:42;99762.31;;;-4.25;91.67
73429;BME280;61643;49.564;17.412;2022-12-18T02:02:08;99759.91;;;-4.17;91.64
73429;BME280;61643;49.564;17.412;2022-12-18T02:04:34;99767.09;;;-4.30;91.63
73429;BME280;61643;49.564;17.412;2022-12-18T02:07:35;99759.31;;;-4.20;92.13
73429;BME280;61643;49.564;17.412;2022-12-18T02:10:04;99763.53;;;-4.29;91.98
73429;BME280;61643;49.564;17.412;2022-12-18T02:15:16;99758.59;;;-4.22;91.48
73429;BME280;61643;49.564;17.412;2022-12-18T02:17:47;99770.69;;;-4.20;91.11
73429;BME280;61643;49.564;17.412;2022-12-18T02:20:36;99779.00;;;-4.15;90.80
73429;BME280;61643;49.564;17.412;2022-12-18T02:28:38;99784.56;;;-4.29;91.58
73429;BME280;61643;49.564;17.412;2022-12-18T02:31:09;99785.88;;;-4.23;91.05
73429;BME280;61643;49.564;17.412;2022-12-18T02:33:36;99785.13;;;-4.25;90.62
73429;BME280;61643;49.564;17.412;2022-12-18T02:36:03;99783.00;;;-4.31;90.63
73429;BME280;61643;49.564;17.412;2022-12-18T02:38:31;99794.97;;;-4.38;91.18
73429;BME280;61643;49.564;17.412;2022-12-18T02:40:57;99797.59;;;-4.38;90.82
73429;BME280;61643;49.564;17.412;2022-12-18T02:43:23;99792.47;;;-4.40;91.79
73429;BME280;61643;49.564;17.412;2022-12-18T02:45:57;99810.28;;;-4.43;91.71
73429;BME280;61643;49.564;17.412;2022-12-18T02:48:25;99799.25;;;-4.37;91.41
73429;BME280;61643;49.564;17.412;2022-12-18T02:51:06;99808.56;;;-4.33;90.94
73429;BME280;61643;49.564;17.412;2022-12-18T02:56:38;99820.50;;;-4.29;90.66
73429;BME280;61643;49.564;17.412;2022-12-18T03:02:17;99825.75;;;-4.29;90.03
73429;BME280;61643;49.564;17.412;2022-12-18T03:04:55;99830.06;;;-4.28;91.41
73429;BME280;61643;49.564;17.412;2022-12-18T03:07:45;99827.69;;;-4.31;90.94
73429;BME280;61643;49.564;17.412;2022-12-18T03:10:17;99826.50;;;-4.27;90.21
73429;BME280;61643;49.564;17.412;2022-12-18T03:12:52;99826.72;;;-4.30;91.01
73429;BME280;61643;49.564;17.412;2022-12-18T03:15:23;99818.59;;;-4.27;90.44
73429;BME280;61643;49.564;17.412;2022-12-18T03:17:54;99812.50;;;-4.28;90.63
73429;BME280;61643;49.564;17.412;2022-12-18T03:20:22;99821.00;;;-4.35;90.63
73429;BME280;61643;49.564;17.412;2022-12-18T03:22:55;99823.13;;;-4.29;90.98
73429;BME280;61643;49.564;17.412;2022-12-18T03:25:22;99825.66;;;-4.28;90.12
73429;BME280;61643;49.564;17.412;2022-12-18T03:27:54;99843.09;;;-4.27;90.21
73429;BME280;61643;49.564;17.412;2022-12-18T03:30:21;99835.69;;;-4.33;89.57
73429;BME280;61643;49.564;17.412;2022-12-18T03:35:36;99840.09;;;-4.33;90.64
73429;BME280;61643;49.564;17.412;2022-12-18T03:38:02;99850.63;;;-4.44;90.75
73429;BME280;61643;49.564;17.412;2022-12-18T03:40:53;99857.66;;;-4.34;90.89
73429;BME280;61643;49.564;17.412;2022-12-18T03:43:49;99862.31;;;-4.26;90.34
73429;BME280;61643;49.564;17.412;2022-12-18T03:46:29;99871.78;;;-4.35;90.26
73429;BME280;61643;49.564;17.412;2022-12-18T03:48:59;99863.06;;;-4.35;90.37
73429;BME280;61643;49.564;17.412;2022-12-18T03:51:28;99866.78;;;-4.38;90.28
73429;BME280;61643;49.564;17.412;2022-12-18T03:54:02;99861.63;;;-4.51;90.20
73429;BME280;61643;49.564;17.412;2022-12-18T03:56:31;99873.69;;;-4.48;90.22
73429;BME280;61643;49.564;17.412;2022-12-18T03:58:59;99869.03;;;-4.56;91.00
73429;BME280;61643;49.564;17.412;2022-12-18T04:01:31;99863.78;;;-4.56;90.66
73429;BME280;61643;49.564;17.412;2022-12-18T04:03:59;99861.66;;;-4.62;90.47
73429;BME280;61643;49.564;17.412;2022-12-18T04:06:26;99866.41;;;-4.56;90.33
73429;BME280;61643;49.564;17.412;2022-12-18T04:08:53;99863.69;;;-4.65;90.89
73429;BME280;61643;49.564;17.412;2022-12-18T04:11:18;99868.09;;;-4.66;90.60
73429;BME280;61643;49.564;17.412;2022-12-18T04:13:43;99872.75;;;-4.69;91.04
73429;BME280;61643;49.564;17.412;2022-12-18T04:16:09;99867.84;;;-4.63;91.00
73429;BME280;61643;49.564;17.412;2022-12-18T04:18:35;99877.16;;;-4.48;90.74
73429;BME280;61643;49.564;17.412;2022-12-18T04:21:01;99878.34;;;-4.40;90.23
73429;BME280;61643;49.564;17.412;2022-12-18T04:23:27;99875.88;;;-4.53;90.32
73429;BME280;61643;49.564;17.412;2022-12-18T04:25:53;99867.16;;;-4.54;90.15
73429;BME280;61643;49.564;17.412;2022-12-18T04:28:19;99873.00;;;-4.61;89.96
73429;BME280;61643;49.564;17.412;2022-12-18T04:30:44;99872.41;;;-4.65;91.25
73429;BME280;61643;49.564;17.412;2022-12-18T04:33:11;99880.19;;;-4.63;90.51
73429;BME280;61643;49.564;17.412;2022-12-18T04:35:38;99873.09;;;-4.63;90.47
73429;BME280;61643;49.564;17.412;2022-12-18T04:38:05;99886.84;;;-4.59;90.43
73429;BME280;61643;49.564;17.412;2022-12-18T04:40:31;99893.66;;;-4.68;89.80
73429;BME280;61643;49.564;17.412;2022-12-18T04:42:56;99888.66;;;-4.71;90.54
73429;BME280;61643;49.564;17.412;2022-12-18T04:45:22;99887.66;;;-4.70;90.10
73429;BME280;61643;49.564;17.412;2022-12-18T04:47:47;99893.16;;;-4.73;89.49
73429;BME280;61643;49.564;17.412;2022-12-18T04:50:12;99899.25;;;-4.72;90.03
73429;BME280;61643;49.564;17.412;2022-12-18T04:52:38;99900.81;;;-4.70;89.69
73429;BME280;61643;49.564;17.412;2022-12-18T04:55:03;99908.81;;;-4.82;89.50
73429;BME280;61643;49.564;17.412;2022-12-18T04:57:29;99904.50;;;-4.72;90.20
73429;BME280;61643;49.564;17.412;2022-12-18T04:59:54;99905.84;;;-4.78;90.23
73429;BME280;61643;49.564;17.412;2022-12-18T05:02:20;99926.13;;;-4.69;89.31
73429;BME280;61643;49.564;17.412;2022-12-18T05:04:45;99920.19;;;-4.60;90.61
73429;BME280;61643;49.564;17.412;2022-12-18T05:07:10;99924.81;;;-4.74;90.00
73429;BME280;61643;49.564;17.412;2022-12-18T05:09:35;99923.41;;;-4.67;89.09
73429;BME280;61643;49.564;17.412;2022-12-18T05:12:01;99921.47;;;-4.76;89.59
73429;BME280;61643;49.564;17.412;2022-12-18T05:14:26;99928.25;;;-4.74;88.85
73429;BME280;61643;49.564;17.412;2022-12-18T05:16:54;99921.22;;;-4.73;89.52
73429;BME280;61643;49.564;17.412;2022-12-18T05:19:19;99914.19;;;-4.73;89.49
73429;BME280;61643;49.564;17.412;2022-12-18T05:21:44;99926.47;;;-4.73;88.82
73429;BME280;61643;49.564;17.412;2022-12-18T05:24:10;99933.66;;;-4.64;89.08
73429;BME280;61643;49.564;17.412;2022-12-18T05:26:35;99929.34;;;-4.65;90.54
73429;BME280;61643;49.564;17.412;2022-12-18T05:29:00;99939.16;;;-4.56;90.51
73429;BME280;61643;49.564;17.412;2022-12-18T05:31:26;99939.53;;;-4.50;90.03
73429;BME280;61643;49.564;17.412;2022-12-18T05:33:51;99945.03;;;-4.41;89.30
73429;BME280;61643;49.564;17.412;2022-12-18T05:36:16;99942.75;;;-4.46;88.96
73429;BME280;61643;49.564;17.412;2022-12-18T05:38:42;99936.03;;;-4.61;89.33
73429;BME280;61643;49.564;17.412;2022-12-18T05:41:08;99945.94;;;-4.76;88.67
73429;BME280;61643;49.564;17.412;2022-12-18T05:43:35;99940.09;;;-4.79;89.53
73429;BME280;61643;49.564;17.412;2022-12-18T05:46:06;99949.16;;;-4.83;89.03
73429;BME280;61643;49.564;17.412;2022-12-18T05:48:32;99951.91;;;-4.85;88.82
73429;BME280;61643;49.564;17.412;2022-12-18T05:51:06;99943.53;;;-4.90;89.01
73429;BME280;61643;49.564;17.412;2022-12-18T05:53:32;99954.41;;;-4.83;89.17
73429;BME280;61643;49.564;17.412;2022-12-18T05:56:00;99959.88;;;-4.86;88.61
73429;BME280;61643;49.564;17.412;2022-12-18T05:58:26;99962.25;;;-4.94;89.65
73429;BME280;61643;49.564;17.412;2022-12-18T06:00:52;99960.47;;;-4.94;89.00
73429;BME280;61643;49.564;17.412;2022-12-18T06:03:17;99965.38;;;-4.89;88.63
73429;BME280;61643;49.564;17.412;2022-12-18T06:05:44;99973.53;;;-4.81;87.70
73429;BME280;61643;49.564;17.412;2022-12-18T06:08:11;99971.25;;;-4.86;87.21
73429;BME280;61643;49.564;17.412;2022-12-18T06:10:37;99966.09;;;-4.87;86.92
73429;BME280;61643;49.564;17.412;2022-12-18T06:13:03;99973.88;;;-4.86;87.25
73429;BME280;61643;49.564;17.412;2022-12-18T06:15:28;99967.75;;;-4.98;87.21
73429;BME280;61643;49.564;17.412;2022-12-18T06:17:54;99979.06;;;-5.08;87.23
73429;BME280;61643;49.564;17.412;2022-12-18T06:20:19;99980.88;;;-4.98;87.33
73429;BME280;61643;49.564;17.412;2022-12-18T06:22:45;99984.34;;;-4.97;86.08
73429;BME280;61643;49.564;17.412;2022-12-18T06:25:10;99979.69;;;-4.93;86.64
73429;BME280;61643;49.564;17.412;2022-12-18T06:27:36;99995.34;;;-4.92;86.16
73429;BME280;61643;49.564;17.412;2022-12-18T06:30:02;100002.16;;;-4.89;86.82
73429;BME280;61643;49.564;17.412;2022-12-18T06:32:27;99999.25;;;-4.98;86.93
73429;BME280;61643;49.564;17.412;2022-12-18T06:34:52;100007.34;;;-5.01;87.32
73429;BME280;61643;49.564;17.412;2022-12-18T06:37:19;100014.63;;;-5.04;87.83
73429;BME280;61643;49.564;17.412;2022-12-18T06:39:44;100007.69;;;-5.05;87.93
73429;BME280;61643;49.564;17.412;2022-12-18T06:42:09;100007.09;;;-5.09;88.37
73429;BME280;61643;49.564;17.412;2022-12-18T06:44:35;100009.09;;;-5.12;88.85
73429;BME280;61643;49.564;17.412;2022-12-18T06:47:00;100015.09;;;-5.10;88.31
73429;BME280;61643;49.564;17.412;2022-12-18T06:49:25;100023.91;;;-5.11;87.87
73429;BME280;61643;49.564;17.412;2022-12-18T06:51:51;100027.25;;;-5.09;87.62
73429;BME280;61643;49.564;17.412;2022-12-18T06:54:17;100032.72;;;-5.12;87.98
73429;BME280;61643;49.564;17.412;2022-12-18T06:56:45;100029.38;;;-5.14;87.81
73429;BME280;61643;49.564;17.412;2022-12-18T06:59:10;100025.19;;;-5.17;88.78
73429;BME280;61643;49.564;17.412;2022-12-18T07:01:35;100032.50;;;-5.09;87.64
73429;BME280;61643;49.564;17.412;2022-12-18T07:04:01;100026.16;;;-5.18;87.64
73429;BME280;61643;49.564;17.412;2022-12-18T07:06:26;100041.34;;;-5.10;88.11
73429;BME280;61643;49.564;17.412;2022-12-18T07:08:52;100048.25;;;-5.09;88.06
73429;BME280;61643;49.564;17.412;2022-12-18T07:11:19;100051.56;;;-5.18;88.80
73429;BME280;61643;49.564;17.412;2022-12-18T07:13:45;100059.19;;;-5.15;87.95
73429;BME280;61643;49.564;17.412;2022-12-18T07:16:16;100066.84;;;-5.12;88.42
73429;BME280;61643;49.564;17.412;2022-12-18T07:18:42;100066.63;;;-5.09;88.56
73429;BME280;61643;49.564;17.412;2022-12-18T07:21:10;100076.78;;;-5.05;87.71
73429;BME280;61643;49.564;17.412;2022-12-18T07:23:36;100073.88;;;-5.13;87.64
73429;BME280;61643;49.564;17.412;2022-12-18T07:26:06;100077.47;;;-5.14;87.87
73429;BME280;61643;49.564;17.412;2022-12-18T07:28:33;100083.75;;;-5.16;87.95
73429;BME280;61643;49.564;17.412;2022-12-18T07:31:03;100091.00;;;-5.07;89.29
73429;BME280;61643;49.564;17.412;2022-12-18T07:33:29;100085.50;;;-5.04;89.13
73429;BME280;61643;49.564;17.412;2022-12-18T07:35:55;100091.00;;;-5.07;87.72
73429;BME280;61643;49.564;17.412;2022-12-18T07:38:20;100092.53;;;-5.05;88.13
73429;BME280;61643;49.564;17.412;2022-12-18T07:40:46;100097.56;;;-5.02;87.09
73429;BME280;61643;49.564;17.412;2022-12-18T07:43:11;100097.34;;;-4.99;87.22
73429;BME280;61643;49.564;17.412;2022-12-18T07:45:36;100098.72;;;-5.06;86.56
73429;BME280;61643;49.564;17.412;2022-12-18T07:48:02;100098.72;;;-5.06;87.45
73429;BME280;61643;49.564;17.412;2022-12-18T07:50:27;100095.94;;;-4.91;87.68
73429;BME280;61643;49.564;17.412;2022-12-18T07:52:52;100089.22;;;-4.96;85.73
73429;BME280;61643;49.564;17.412;2022-12-18T07:55:18;100093.09;;;-4.88;85.15
73429;BME280;61643;49.564;17.412;2022-12-18T07:57:43;100093.25;;;-4.79;84.96
73429;BME280;61643;49.564;17.412;2022-12-18T08:00:09;100097.50;;;-4.89;85.35
73429;BME280;61643;49.564;17.412;2022-12-18T08:02:34;100105.41;;;-4.89;85.25
73429;BME280;61643;49.564;17.412;2022-12-18T08:04:59;100115.22;;;-4.80;85.01
73429;BME280;61643;49.564;17.412;2022-12-18T08:07:25;100118.34;;;-4.75;84.83
73429;BME280;61643;49.564;17.412;2022-12-18T08:09:50;100116.16;;;-4.81;84.34
73429;BME280;61643;49.564;17.412;2022-12-18T08:12:16;100111.97;;;-4.83;84.00
73429;BME280;61643;49.564;17.412;2022-12-18T08:14:41;100127.41;;;-4.79;84.00
73429;BME280;61643;49.564;17.412;2022-12-18T08:17:06;100118.63;;;-4.67;84.55
73429;BME280;61643;49.564;17.412;2022-12-18T08:19:32;100107.22;;;-4.78;84.10
73429;BME280;61643;49.564;17.412;2022-12-18T08:21:57;100119.97;;;-4.85;84.21
73429;BME280;61643;49.564;17.412;2022-12-18T08:24:23;100102.53;;;-4.86;85.05
73429;BME280;61643;49.564;17.412;2022-12-18T08:26:48;100112.38;;;-5.01;85.33
73429;BME280;61643;49.564;17.412;2022-12-18T08:29:13;100109.59;;;-5.10;86.17
73429;BME280;61643;49.564;17.412;2022-12-18T08:31:39;100111.63;;;-5.03;85.02
73429;BME280;61643;49.564;17.412;2022-12-18T08:34:04;100115.00;;;-5.01;85.73
73429;BME280;61643;49.564;17.412;2022-12-18T08:36:30;100112.66;;;-4.92;85.14
73429;BME280;61643;49.564;17.412;2022-12-18T08:38:56;100110.47;;;-4.75;84.22
73429;BME280;61643;49.564;17.412;2022-12-18T08:41:22;100118.13;;;-4.72;84.48
73429;BME280;61643;49.564;17.412;2022-12-18T08:43:47;100132.38;;;-4.87;84.29
73429;BME280;61643;49.564;17.412;2022-12-18T08:46:40;100135.09;;;-4.65;84.43
73429;BME280;61643;49.564;17.412;2022-12-18T08:49:06;100135.13;;;-4.54;84.35
73429;BME280;61643;49.564;17.412;2022-12-18T08:51:32;100137.25;;;-4.59;84.13
73429;BME280;61643;49.564;17.412;2022-12-18T08:53:58;100140.66;;;-4.45;83.44
73429;BME280;61643;49.564;17.412;2022-12-18T08:56:23;100125.94;;;-4.48;82.75
73429;BME280;61643;49.564;17.412;2022-12-18T08:58:52;100130.06;;;-4.68;83.71
73429;BME280;61643;49.564;17.412;2022-12-18T09:01:18;100136.22;;;-4.56;83.78
73429;BME280;61643;49.564;17.412;2022-12-18T09:03:46;100151.38;;;-4.60;83.33
73429;BME280;61643;49.564;17.412;2022-12-18T09:06:16;100151.78;;;-4.42;82.72
73429;BME280;61643;49.564;17.412;2022-12-18T09:08:43;100151.50;;;-4.50;82.70
73429;BME280;61643;49.564;17.412;2022-12-18T09:11:22;100146.34;;;-4.52;83.19
73429;BME280;61643;49.564;17.412;2022-12-18T09:13:48;100150.44;;;-4.48;82.97
73429;BME280;61643;49.564;17.412;2022-12-18T09:16:14;100149.06;;;-4.64;83.49
73429;BME280;61643;49.564;17.412;2022-12-18T09:18:39;100153.19;;;-4.49;82.64
73429;BME280;61643;49.564;17.412;2022-12-18T09:21:18;100148.94;;;-4.63;82.29
73429;BME280;61643;49.564;17.412;2022-12-18T09:23:51;100154.38;;;-4.77;83.12
73429;BME280;61643;49.564;17.412;2022-12-18T09:26:17;100156.75;;;-4.85;83.74
73429;BME280;61643;49.564;17.412;2022-12-18T09:28:42;100153.75;;;-4.80;82.62
73429;BME280;61643;49.564;17.412;2022-12-18T09:31:08;100149.97;;;-4.76;82.52
73429;BME280;61643;49.564;17.412;2022-12-18T09:33:37;100154.94;;;-4.61;83.65
73429;BME280;61643;49.564;17.412;2022-12-18T09:36:03;100158.03;;;-4.67;82.41
73429;BME280;61643;49.564;17.412;2022-12-18T09:38:29;100152.91;;;-4.81;83.34
73429;BME280;61643;49.564;17.412;2022-12-18T09:41:00;100149.97;;;-4.76;83.79
73429;BME280;61643;49.564;17.412;2022-12-18T09:43:35;100134.38;;;-4.56;83.35
73429;BME280;61643;49.564;17.412;2022-12-18T09:46:06;100124.19;;;-4.36;82.24
73429;BME280;61643;49.564;17.412;2022-12-18T09:48:39;100134.38;;;-4.56;82.95
73429;BME280;61643;49.564;17.412;2022-12-18T09:51:15;100128.22;;;-4.43;82.48
73429;BME280;61643;49.564;17.412;2022-12-18T09:53:48;100134.84;;;-4.38;83.02
73429;BME280;61643;49.564;17.412;2022-12-18T09:56:19;100135.44;;;-4.34;82.57
73429;BME280;61643;49.564;17.412;2022-12-18T09:58:53;100135.91;;;-4.29;81.84
73429;BME280;61643;49.564;17.412;2022-12-18T10:01:22;100137.56;;;-4.39;82.05
73429;BME280;61643;49.564;17.412;2022-12-18T10:03:48;100132.19;;;-4.49;81.86
73429;BME280;61643;49.564;17.412;2022-12-18T10:06:20;100137.34;;;-4.36;82.72
73429;BME280;61643;49.564;17.412;2022-12-18T10:09:08;100127.75;;;-4.37;82.46
73429;BME280;61643;49.564;17.412;2022-12-18T10:11:43;100132.59;;;-4.20;82.24
73429;BME280;61643;49.564;17.412;2022-12-18T10:19:43;100118.63;;;-4.10;80.98
73429;BME280;61643;49.564;17.412;2022-12-18T10:22:39;100107.75;;;-4.05;81.09
73429;BME280;61643;49.564;17.412;2022-12-18T10:25:31;100103.47;;;-3.95;83.04
73429;BME280;61643;49.564;17.412;2022-12-18T10:28:10;100112.44;;;-3.86;81.52
73429;BME280;61643;49.564;17.412;2022-12-18T10:30:38;100113.84;;;-4.27;80.83
73429;BME280;61643;49.564;17.412;2022-12-18T10:33:03;100111.34;;;-4.06;80.95
73429;BME280;61643;49.564;17.412;2022-12-18T10:35:29;100121.88;;;-4.06;81.06
73429;BME280;61643;49.564;17.412;2022-12-18T10:38:05;100119.00;;;-4.03;82.38
73429;BME280;61643;49.564;17.412;2022-12-18T10:40:31;100114.59;;;-4.03;81.97
73429;BME280;61643;49.564;17.412;2022-12-18T10:45:29;100114.81;;;-3.72;81.84
73429;BME280;61643;49.564;17.412;2022-12-18T10:47:55;100119.25;;;-3.84;80.35
73429;BME280;61643;49.564;17.412;2022-12-18T10:50:33;100132.78;;;-3.77;80.91
73429;BME280;61643;49.564;17.412;2022-12-18T10:53:01;100119.63;;;-3.55;80.97
73429;BME280;61643;49.564;17.412;2022-12-18T10:55:33;100121.06;;;-3.84;80.26
73429;BME280;61643;49.564;17.412;2022-12-18T10:58:32;100121.53;;;-3.68;81.16
73429;BME280;61643;49.564;17.412;2022-12-18T11:01:17;100124.16;;;-3.79;81.18
73429;BME280;61643;49.564;17.412;2022-12-18T11:03:45;100114.47;;;-3.79;80.67
73429;BME280;61643;49.564;17.412;2022-12-18T11:06:16;100113.28;;;-3.75;81.35
73429;BME280;61643;49.564;17.412;2022-12-18T11:08:44;100112.31;;;-3.85;80.34
73429;BME280;61643;49.564;17.412;2022-12-18T11:11:23;100110.38;;;-3.94;81.61
73429;BME280;61643;49.564;17.412;2022-12-18T11:13:58;100112.66;;;-4.12;80.92
73429;BME280;61643;49.564;17.412;2022-12-18T11:16:25;100106.72;;;-3.91;81.90
73429;BME280;61643;49.564;17.412;2022-12-18T11:18:51;100109.44;;;-3.93;81.00
73429;BME280;61643;49.564;17.412;2022-12-18T11:21:16;100111.47;;;-3.74;81.22
73429;BME280;61643;49.564;17.412;2022-12-18T11:23:51;100103.09;;;-3.57;80.32
73429;BME280;61643;49.564;17.412;2022-12-18T11:26:17;100121.50;;;-3.46;80.11
73429;BME280;61643;49.564;17.412;2022-12-18T11:31:29;100102.75;;;-3.53;79.38
73429;BME280;61643;49.564;17.412;2022-12-18T11:34:10;100119.81;;;-3.47;80.37
73429;BME280;61643;49.564;17.412;2022-12-18T11:36:38;100109.94;;;-3.55;79.03
73429;BME280;61643;49.564;17.412;2022-12-18T11:39:37;100124.38;;;-3.93;79.11
73429;BME280;61643;49.564;17.412;2022-12-18T11:44:58;100128.56;;;-4.48;80.71
73429;BME280;61643;49.564;17.412;2022-12-18T11:47:44;100121.56;;;-4.36;81.16
73429;BME280;61643;49.564;17.412;2022-12-18T11:50:18;100128.13;;;-4.42;81.23
73429;BME280;61643;49.564;17.412;2022-12-18T11:52:44;100132.56;;;-4.66;81.23
73429;BME280;61643;49.564;17.412;2022-12-18T11:55:11;100139.66;;;-4.56;79.86
73429;BME280;61643;49.564;17.412;2022-12-18T11:58:07;100137.50;;;-4.62;79.66
73429;BME280;61643;49.564;17.412;2022-12-18T12:01:06;100138.69;;;-4.55;79.62
73429;BME280;61643;49.564;17.412;2022-12-18T12:03:43;100134.16;;;-4.64;80.92
73429;BME280;61643;49.564;17.412;2022-12-18T12:06:20;100135.97;;;-4.53;81.94
73429;BME280;61643;49.564;17.412;2022-12-18T12:15:02;100137.00;;;-4.67;78.97
73429;BME280;61643;49.564;17.412;2022-12-18T12:17:52;100143.84;;;-5.24;77.61
73429;BME280;61643;49.564;17.412;2022-12-18T12:20:23;100134.66;;;-5.42;78.39
73429;BME280;61643;49.564;17.412;2022-12-18T12:22:59;100126.78;;;-5.42;80.28
73429;BME280;61643;49.564;17.412;2022-12-18T12:25:35;100130.25;;;-5.42;77.17
73429;BME280;61643;49.564;17.412;2022-12-18T12:29:09;100125.84;;;-5.41;76.04
73429;BME280;61643;49.564;17.412;2022-12-18T12:36:32;100129.38;;;-5.30;80.90
73429;BME280;61643;49.564;17.412;2022-12-18T12:39:06;100120.44;;;-5.27;81.20
73429;BME280;61643;49.564;17.412;2022-12-18T12:41:36;100129.13;;;-5.14;81.07
73429;BME280;61643;49.564;17.412;2022-12-18T12:44:30;100118.66;;;-5.27;80.57
73429;BME280;61643;49.564;17.412;2022-12-18T12:47:07;100117.19;;;-5.31;80.78
73429;BME280;61643;49.564;17.412;2022-12-18T12:49:37;100111.34;;;-5.34;80.70
73429;BME280;61643;49.564;17.412;2022-12-18T12:52:42;100117.19;;;-5.31;80.81
73429;BME280;61643;49.564;17.412;2022-12-18T12:55:14;100118.59;;;-5.38;80.02
73429;BME280;61643;49.564;17.412;2022-12-18T12:58:08;100117.97;;;-5.41;80.78
73429;BME280;61643;49.564;17.412;2022-12-18T13:00:39;100120.50;;;-5.40;78.62
73429;BME280;61643;49.564;17.412;2022-12-18T13:03:41;100113.03;;;-5.46;76.56
73429;BME280;61643;49.564;17.412;2022-12-18T13:06:40;100114.34;;;-5.64;74.42
73429;BME280;61643;49.564;17.412;2022-12-18T13:09:07;100115.31;;;-5.78;75.53
73429;BME280;61643;49.564;17.412;2022-12-18T13:11:36;100111.38;;;-5.96;73.97
73429;BME280;61643;49.564;17.412;2022-12-18T13:19:41;100128.09;;;-6.22;76.40
73429;BME280;61643;49.564;17.412;2022-12-18T13:22:28;100120.41;;;-6.25;76.82
73429;BME280;61643;49.564;17.412;2022-12-18T13:24:55;100112.88;;;-6.30;76.38
73429;BME280;61643;49.564;17.412;2022-12-18T13:30:48;100112.03;;;-6.30;80.23
73429;BME280;61643;49.564;17.412;2022-12-18T13:35:41;100118.63;;;-6.25;79.35
73429;BME280;61643;49.564;17.412;2022-12-18T13:45:50;100123.56;;;-6.20;85.45
73429;BME280;61643;49.564;17.412;2022-12-18T13:48:26;100124.72;;;-6.24;84.41
73429;BME280;61643;49.564;17.412;2022-12-18T13:50:57;100116.88;;;-6.12;84.54
73429;BME280;61643;49.564;17.412;2022-12-18T13:53:36;100119.16;;;-6.07;82.74
73429;BME280;61643;49.564;17.412;2022-12-18T13:56:05;100125.53;;;-6.11;79.75
73429;BME280;61643;49.564;17.412;2022-12-18T13:58:31;100123.88;;;-6.25;78.44
73429;BME280;61643;49.564;17.412;2022-12-18T14:00:56;100127.84;;;-6.32;76.78
73429;BME280;61643;49.564;17.412;2022-12-18T14:03:26;100139.75;;;-6.53;75.13
73429;BME280;61643;49.564;17.412;2022-12-18T14:05:55;100136.66;;;-6.72;75.99